createdAt,value
2018-03-06T16:13:02.496Z,27.1
2018-03-06T16:13:55.289Z,27.1
2018-03-06T16:14:44.811Z,27
2018-03-06T16:15:35.104Z,26.9
2018-03-06T16:16:25.470Z,26.9
2018-03-06T16:17:15.301Z,26.9
2018-03-06T16:18:06.381Z,26.9
2018-03-06T16:18:56.170Z,26.8
2018-03-06T16:19:46.185Z,26.8
2018-03-06T16:20:35.952Z,26.8
2018-03-06T16:21:26.380Z,26.8
2018-03-06T16:22:15.218Z,26.9
2018-03-06T16:23:06.443Z,26.9
2018-03-06T16:23:56.502Z,27.1
2018-03-06T16:24:45.667Z,27.1
2018-03-06T16:25:36.306Z,27.2
2018-03-06T16:26:25.801Z,27.3
2018-03-06T16:27:16.124Z,27.4
2018-03-06T16:28:05.037Z,27.4
2018-03-06T16:28:56.821Z,27.5
2018-03-06T16:29:46.947Z,27.5
2018-03-06T16:30:36.670Z,27.5
2018-03-06T16:31:27.076Z,27.6
2018-03-06T16:32:17.111Z,27.6
2018-03-06T16:33:07.162Z,27.6
2018-03-06T16:33:57.147Z,27.6
2018-03-06T16:34:47.626Z,27.6
2018-03-06T16:35:37.573Z,27.6
2018-03-06T16:36:27.349Z,27.6
2018-03-06T16:37:16.820Z,27.6
2018-03-06T16:38:06.321Z,27.4
2018-03-06T16:38:56.971Z,27.4
2018-03-06T16:39:47.821Z,27.4
2018-03-06T16:40:37.919Z,27.4
2018-03-06T16:41:27.964Z,27.3
2018-03-06T16:42:17.767Z,27.3
2018-03-06T16:43:07.899Z,27.2
2018-03-06T16:43:58.192Z,27.1
2018-03-06T16:44:47.631Z,27.1
2018-03-06T16:45:37.701Z,27.1
2018-03-06T16:46:27.766Z,27.1
2018-03-06T16:47:17.531Z,27
2018-03-06T16:48:08.193Z,26.9
2018-03-06T16:48:57.696Z,26.9
2018-03-06T16:49:48.026Z,26.9
2018-03-06T16:50:38.040Z,26.9
2018-03-06T16:51:28.393Z,26.8
2018-03-06T16:52:18.192Z,26.8
2018-03-06T16:53:07.926Z,26.7
2018-03-06T16:53:58.553Z,26.6
2018-03-06T16:54:48.580Z,26.6
2018-03-06T16:55:38.981Z,26.6
2018-03-06T16:56:28.744Z,26.6
2018-03-06T16:57:17.971Z,26.5
2018-03-06T16:58:09.105Z,26.5
2018-03-06T16:58:57.747Z,26.6
2018-03-06T16:59:48.655Z,26.6
2018-03-06T17:00:39.280Z,26.8
2018-03-06T17:01:29.355Z,26.8
2018-03-06T17:02:18.552Z,26.9
2018-03-06T17:03:09.480Z,27
2018-03-06T17:03:59.259Z,27.1
2018-03-06T17:04:50.325Z,27.1
2018-03-06T17:05:39.627Z,27.2
2018-03-06T17:06:29.119Z,27.2
2018-03-06T17:07:19.765Z,27.3
2018-03-06T17:08:09.517Z,27.3
2018-03-06T17:08:59.886Z,27.3
2018-03-06T17:09:49.390Z,27.3
2018-03-06T17:10:39.692Z,27.3
2018-03-06T17:11:29.482Z,27.3
2018-03-06T17:12:20.157Z,27.3
2018-03-06T17:13:09.589Z,27.3
2018-03-06T17:14:00.205Z,27.3
2018-03-06T17:14:50.246Z,27.3
2018-03-06T17:15:39.813Z,27.2
2018-03-06T17:16:29.813Z,27.2
2018-03-06T17:17:19.693Z,27.1
2018-03-06T17:18:10.224Z,27.1
2018-03-06T17:19:00.258Z,27.1
2018-03-06T17:19:50.348Z,27
2018-03-06T17:20:39.816Z,26.9
2018-03-06T17:21:30.731Z,26.9
2018-03-06T17:22:19.689Z,26.9
2018-03-06T17:23:10.870Z,26.9
2018-03-06T17:24:00.595Z,26.8
2018-03-06T17:24:50.402Z,26.8
2018-03-06T17:25:41.003Z,26.7
2018-03-06T17:26:31.086Z,26.6
2018-03-06T17:27:20.316Z,26.6
2018-03-06T17:28:10.930Z,26.6
2018-03-06T17:29:00.482Z,26.5
2018-03-06T17:29:51.054Z,26.4
2018-03-06T17:30:41.361Z,26.4
2018-03-06T17:31:30.976Z,26.4
2018-03-06T17:32:19.399Z,26.4
2018-03-06T17:33:09.651Z,26.4
2018-03-06T17:33:59.899Z,26.4
2018-03-06T17:34:50.338Z,26.6
2018-03-06T17:35:39.914Z,26.6
2018-03-06T17:36:29.680Z,26.8
2018-03-06T17:37:20.937Z,26.8
2018-03-06T17:38:10.812Z,26.9
2018-03-06T17:39:00.432Z,26.9
2018-03-06T17:39:50.756Z,27.1
2018-03-06T17:40:40.768Z,27.1
2018-03-06T17:41:30.130Z,27.1
2018-03-06T17:42:20.591Z,27.2
2018-03-06T17:43:10.922Z,27.2
2018-03-06T17:44:00.999Z,27.2
2018-03-06T17:44:49.358Z,27.2
2018-03-06T17:45:40.355Z,27.2
2018-03-06T17:46:30.753Z,27.2
2018-03-06T17:47:20.826Z,27.2
2018-03-06T17:48:11.328Z,27.2
2018-03-06T17:49:01.098Z,27.1
2018-03-06T17:49:51.335Z,27
2018-03-06T17:50:39.642Z,26.9
2018-03-06T17:51:31.047Z,26.8
2018-03-06T17:52:20.746Z,26.8
2018-03-06T17:53:10.824Z,26.7
2018-03-06T17:54:02.285Z,26.6
2018-03-06T17:54:52.730Z,26.6
2018-03-06T17:55:42.272Z,26.5
2018-03-06T17:56:32.870Z,26.4
2018-03-06T17:57:22.919Z,26.4
2018-03-06T17:58:11.958Z,26.3
2018-03-06T17:59:02.529Z,26.4
2018-03-06T17:59:52.037Z,26.4
2018-03-06T18:00:42.239Z,26.4
2018-03-06T18:01:32.207Z,26.3
2018-03-06T18:02:22.010Z,26.3
2018-03-06T18:03:11.102Z,26.5
2018-03-06T18:04:02.018Z,26.8
2018-03-06T18:04:52.374Z,26.9
2018-03-06T18:05:41.934Z,27.2
2018-03-06T18:06:32.567Z,27.4
2018-03-06T18:07:23.802Z,27.6
2018-03-06T18:09:03.533Z,28
2018-03-06T18:09:53.567Z,28.1
2018-03-06T18:10:43.657Z,28.3
2018-03-06T18:11:33.929Z,28.4
2018-03-06T18:12:23.357Z,28.4
2018-03-06T18:13:13.991Z,28.5
2018-03-06T18:14:04.396Z,28.6
2018-03-06T18:14:53.299Z,28.6
2018-03-06T18:15:43.958Z,28.6
2018-03-06T18:16:34.296Z,28.7
2018-03-06T18:17:24.606Z,28.7
2018-03-06T18:18:14.361Z,28.7
2018-03-06T18:19:04.686Z,28.6
2018-03-06T18:19:53.916Z,28.6
2018-03-06T18:20:44.233Z,28.6
2018-03-06T18:21:34.041Z,28.6
2018-03-06T18:22:24.979Z,28.6
2018-03-06T18:23:14.689Z,28.5
2018-03-06T18:24:05.072Z,28.5
2018-03-06T18:24:54.806Z,28.4
2018-03-06T18:25:44.903Z,28.4
2018-03-06T18:26:35.106Z,28.4
2018-03-06T18:27:25.288Z,28.3
2018-03-06T18:28:15.066Z,28.3
2018-03-06T18:29:04.661Z,28.3
2018-03-06T18:29:54.932Z,28.1
2018-03-06T18:30:44.963Z,28.1
2018-03-06T18:31:35.628Z,28.1
2018-03-06T18:32:25.229Z,28
2018-03-06T18:33:14.848Z,27.9
2018-03-06T18:34:05.815Z,26.6
2018-03-06T18:34:55.370Z,26.2
2018-03-06T18:35:45.301Z,25.9
2018-03-06T18:36:35.089Z,25.8
2018-03-06T18:37:24.311Z,25.8
2018-03-06T18:38:15.678Z,25.7
2018-03-06T18:39:05.514Z,25.6
2018-03-06T18:39:55.829Z,25.6
2018-03-06T18:40:45.572Z,25.8
2018-03-06T18:41:36.342Z,26.1
2018-03-06T18:42:26.323Z,26.3
2018-03-06T18:43:15.770Z,26.6
2018-03-06T18:44:05.844Z,26.8
2018-03-06T18:44:56.582Z,27
2018-03-06T18:45:45.662Z,27.3
2018-03-06T18:46:36.619Z,27.4
2018-03-06T18:47:25.893Z,27.6
2018-03-06T18:48:16.269Z,27.7
2018-03-06T18:49:06.744Z,27.9
2018-03-06T18:49:56.563Z,27.9
2018-03-06T18:50:46.296Z,28
2018-03-06T18:51:35.663Z,28.1
2018-03-06T18:52:25.946Z,28.1
2018-03-06T18:53:17.098Z,28.2
2018-03-06T18:54:07.146Z,28.2
2018-03-06T18:54:56.377Z,28.3
2018-03-06T18:55:46.442Z,28.2
2018-03-06T18:56:36.538Z,28.3
2018-03-06T18:57:26.541Z,28.3
2018-03-06T18:58:17.126Z,28.2
2018-03-06T18:59:07.450Z,28.2
2018-03-06T18:59:57.488Z,28.1
2018-03-06T19:00:47.264Z,28.1
2018-03-06T19:01:36.433Z,28.1
2018-03-06T19:02:26.255Z,28.1
2018-03-06T19:03:17.410Z,28
2018-03-06T19:04:07.803Z,27.9
2018-03-06T19:04:57.850Z,27.9
2018-03-06T19:05:47.663Z,27.9
2018-03-06T19:06:37.915Z,27.9
2018-03-06T19:07:27.236Z,27.8
2018-03-06T19:08:17.798Z,27.8
2018-03-06T19:09:07.916Z,27.7
2018-03-06T19:09:57.318Z,27.3
2018-03-06T19:10:47.680Z,26.1
2018-03-06T19:11:38.017Z,25.7
2018-03-06T19:12:27.801Z,25.4
2018-03-06T19:13:18.453Z,25.3
2018-03-06T19:14:08.184Z,25.2
2018-03-06T19:14:58.289Z,25.2
2018-03-06T19:15:48.100Z,25.1
2018-03-06T19:16:38.375Z,25
2018-03-06T19:17:28.399Z,25.2
2018-03-06T19:18:18.490Z,25.5
2018-03-06T19:19:09.116Z,25.7
2018-03-06T19:19:58.357Z,25.9
2018-03-06T19:20:48.675Z,26.2
2018-03-06T19:21:38.173Z,26.4
2018-03-06T19:22:28.798Z,26.6
2018-03-06T19:23:18.544Z,26.8
2018-03-06T19:24:08.881Z,27
2018-03-06T19:24:58.781Z,27.2
2018-03-06T19:25:48.449Z,27.3
2018-03-06T19:26:39.374Z,27.4
2018-03-06T19:27:29.111Z,27.5
2018-03-06T19:28:19.186Z,27.6
2018-03-06T19:29:09.529Z,27.6
2018-03-06T19:29:59.607Z,27.7
2018-03-06T19:30:49.053Z,27.8
2018-03-06T19:31:39.371Z,27.8
2018-03-06T19:32:29.705Z,27.8
2018-03-06T19:34:09.586Z,27.8
2018-03-06T19:34:59.342Z,27.8
2018-03-06T19:35:49.503Z,27.8
2018-03-06T19:36:40.001Z,27.7
2018-03-06T19:37:30.119Z,27.7
2018-03-06T19:38:19.273Z,27.7
2018-03-06T19:39:10.153Z,27.6
2018-03-06T19:39:59.978Z,27.6
2018-03-06T19:40:49.753Z,27.6
2018-03-06T19:41:39.561Z,27.6
2018-03-06T19:42:30.469Z,27.5
2018-03-06T19:43:20.236Z,27.5
2018-03-06T19:44:10.303Z,27.4
2018-03-06T19:45:00.323Z,27.4
2018-03-06T19:45:50.140Z,26.8
2018-03-06T19:46:40.150Z,25.8
2018-03-06T19:47:29.353Z,25.3
2018-03-06T19:48:20.525Z,25.1
2018-03-06T19:49:10.297Z,24.9
2018-03-06T19:50:00.389Z,24.8
2018-03-06T19:50:49.998Z,24.8
2018-03-06T19:51:40.127Z,24.8
2018-03-06T19:52:30.136Z,24.6
2018-03-06T19:53:20.210Z,24.8
2018-03-06T19:54:10.302Z,24.9
2018-03-06T19:55:00.284Z,25.2
2018-03-06T19:55:50.686Z,25.4
2018-03-06T19:56:40.961Z,25.7
2018-03-06T19:57:29.850Z,25.9
2018-03-06T19:58:20.708Z,26.2
2018-03-06T19:59:11.242Z,26.4
2018-03-06T20:00:00.820Z,26.6
2018-03-06T20:00:51.215Z,26.8
2018-03-06T20:01:40.669Z,26.9
2018-03-06T20:02:31.285Z,27.1
2018-03-06T20:03:21.387Z,27.1
2018-03-06T20:04:10.584Z,27.2
2018-03-06T20:05:01.168Z,27.3
2018-03-06T20:05:52.086Z,27.3
2018-03-06T20:06:40.755Z,27.4
2018-03-06T20:07:31.154Z,27.4
2018-03-06T20:08:22.160Z,27.4
2018-03-06T20:09:11.800Z,27.4
2018-03-06T20:10:01.879Z,27.4
2018-03-06T20:10:51.394Z,27.4
2018-03-06T20:11:41.652Z,27.4
2018-03-06T20:12:32.025Z,27.4
2018-03-06T20:13:22.317Z,27.3
2018-03-06T20:14:12.363Z,27.3
2018-03-06T20:15:02.219Z,27.3
2018-03-06T20:15:52.006Z,27.3
2018-03-06T20:16:42.022Z,27.2
2018-03-06T20:17:31.995Z,27.2
2018-03-06T20:18:22.409Z,27.1
2018-03-06T20:19:12.497Z,27.1
2018-03-06T20:20:02.711Z,27
2018-03-06T20:20:52.808Z,27
2018-03-06T20:21:42.966Z,26.9
2018-03-06T20:22:32.949Z,25.6
2018-03-06T20:23:22.996Z,25
2018-03-06T20:24:13.381Z,24.8
2018-03-06T20:25:02.874Z,24.6
2018-03-06T20:25:53.511Z,24.4
2018-03-06T20:26:42.958Z,24.4
2018-03-06T20:27:33.566Z,24.4
2018-03-06T20:28:23.668Z,24.3
2018-03-06T20:29:13.442Z,24.3
2018-03-06T20:30:03.457Z,24.6
2018-03-06T20:30:53.274Z,24.8
2018-03-06T20:31:43.238Z,25.1
2018-03-06T20:32:33.949Z,25.3
2018-03-06T20:33:23.425Z,25.6
2018-03-06T20:34:13.786Z,25.9
2018-03-06T20:35:03.247Z,26.1
2018-03-06T20:35:53.941Z,26.3
2018-03-06T20:36:43.661Z,26.5
2018-03-06T20:37:34.048Z,26.7
2018-03-06T20:38:23.703Z,26.8
2018-03-06T20:39:13.628Z,26.9
2018-03-06T20:40:04.275Z,27
2018-03-06T20:40:53.595Z,27.1
2018-03-06T20:41:44.005Z,27.2
2018-03-06T20:42:34.519Z,27.2
2018-03-06T20:43:24.480Z,27.3
2018-03-06T20:44:14.211Z,27.3
2018-03-06T20:45:04.296Z,27.3
2018-03-06T20:45:54.243Z,27.3
2018-03-06T20:46:44.023Z,27.3
2018-03-06T20:47:34.372Z,27.3
2018-03-06T20:48:25.131Z,27.3
2018-03-06T20:49:14.542Z,27.3
2018-03-06T20:50:04.315Z,27.3
2018-03-06T20:50:53.772Z,27.3
2018-03-06T20:51:45.033Z,27.2
2018-03-06T20:52:35.149Z,27.2
2018-03-06T20:53:24.727Z,27.1
2018-03-06T20:54:14.900Z,27.1
2018-03-06T20:55:04.624Z,27.1
2018-03-06T20:55:54.818Z,27.1
2018-03-06T20:56:45.284Z,27
2018-03-06T20:57:35.082Z,26.9
2018-03-06T20:58:25.379Z,25.6
2018-03-06T20:59:14.866Z,24.9
2018-03-06T21:00:05.518Z,24.6
2018-03-06T21:00:55.620Z,24.4
2018-03-06T21:01:45.346Z,24.3
2018-03-06T21:02:35.097Z,24.1
2018-03-06T21:03:26.286Z,24.1
2018-03-06T21:04:15.201Z,24.1
2018-03-06T21:05:05.017Z,24
2018-03-06T21:05:54.601Z,23.9
2018-03-06T21:06:45.234Z,24.2
2018-03-06T21:07:35.781Z,24.6
2018-03-06T21:08:25.863Z,25
2018-03-06T21:09:14.647Z,25.4
2018-03-06T21:10:05.373Z,25.8
2018-03-06T21:10:55.486Z,26.1
2018-03-06T21:11:44.581Z,26.4
2018-03-06T21:12:34.917Z,26.6
2018-03-06T21:13:25.233Z,26.9
2018-03-06T21:14:15.555Z,27
2018-03-06T21:15:04.481Z,27.2
2018-03-06T21:15:55.349Z,27.4
2018-03-06T21:16:44.661Z,27.5
2018-03-06T21:17:35.309Z,27.6
2018-03-06T21:18:25.922Z,27.6
2018-03-06T21:19:15.852Z,27.7
2018-03-06T21:20:06.707Z,27.8
2018-03-06T21:20:56.164Z,27.8
2018-03-06T21:21:46.508Z,27.8
2018-03-06T21:22:35.994Z,27.8
2018-03-06T21:23:26.854Z,27.8
2018-03-06T21:24:16.653Z,27.8
2018-03-06T21:25:07.814Z,27.8
2018-03-06T21:25:56.400Z,27.8
2018-03-06T21:26:47.620Z,27.7
2018-03-06T21:27:36.563Z,27.7
2018-03-06T21:28:27.184Z,27.6
2018-03-06T21:29:16.540Z,27.6
2018-03-06T21:30:07.288Z,25.7
2018-03-06T21:30:57.284Z,24.9
2018-03-06T21:31:48.157Z,24.5
2018-03-06T21:32:37.229Z,24.3
2018-03-06T21:33:26.356Z,24.1
2018-03-06T21:34:16.185Z,24
2018-03-06T21:35:07.403Z,23.9
2018-03-06T21:35:57.358Z,23.9
2018-03-06T21:36:48.726Z,23.8
2018-03-06T21:37:37.617Z,24.1
2018-03-06T21:38:28.284Z,24.4
2018-03-06T21:39:18.134Z,24.8
2018-03-06T21:40:06.799Z,25.2
2018-03-06T21:40:58.359Z,25.6
2018-03-06T21:41:46.998Z,25.9
2018-03-06T21:42:37.504Z,26.2
2018-03-06T21:43:26.647Z,26.4
2018-03-06T21:44:17.704Z,26.7
2018-03-06T21:45:08.890Z,26.9
2018-03-06T21:45:57.746Z,27
2018-03-06T21:46:48.559Z,27.2
2018-03-06T21:47:38.984Z,27.3
2018-03-06T21:48:28.760Z,27.4
2018-03-06T21:49:18.857Z,27.4
2018-03-06T21:50:08.934Z,27.5
2018-03-06T21:50:58.464Z,27.6
2018-03-06T21:51:49.248Z,27.6
2018-03-06T21:52:38.806Z,27.6
2018-03-06T21:53:29.407Z,27.6
2018-03-06T21:54:19.431Z,27.6
2018-03-06T21:55:09.257Z,27.6
2018-03-06T21:55:59.006Z,27.6
2018-03-06T21:56:49.825Z,27.6
2018-03-06T21:57:39.674Z,27.6
2018-03-06T21:58:29.746Z,27.6
2018-03-06T22:00:09.836Z,27.2
2018-03-06T22:00:59.621Z,25.4
2018-03-06T22:01:49.728Z,24.7
2018-03-06T22:02:40.073Z,24.3
2018-03-06T22:03:30.065Z,24
2018-03-06T22:04:19.008Z,23.9
2018-03-06T22:05:09.105Z,23.8
2018-03-06T22:06:00.281Z,23.8
2018-03-06T22:06:50.034Z,23.7
2018-03-06T22:07:39.820Z,23.6
2018-03-06T22:08:29.876Z,24
2018-03-06T22:09:20.306Z,24.4
2018-03-06T22:10:09.718Z,24.8
2018-03-06T22:11:00.314Z,25.2
2018-03-06T22:11:50.145Z,25.6
2018-03-06T22:12:40.763Z,25.8
2018-03-06T22:13:29.671Z,26.1
2018-03-06T22:14:20.508Z,26.4
2018-03-06T22:15:10.633Z,26.6
2018-03-06T22:16:00.503Z,26.8
2018-03-06T22:16:50.442Z,26.9
2018-03-06T22:17:40.750Z,27.1
2018-03-06T22:18:30.971Z,27.2
2018-03-06T22:19:20.122Z,27.3
2018-03-06T22:20:10.164Z,27.4
2018-03-06T22:21:00.577Z,27.4
2018-03-06T22:21:51.375Z,27.4
2018-03-06T22:22:40.815Z,27.5
2018-03-06T22:23:30.341Z,27.5
2018-03-06T22:24:20.364Z,27.5
2018-03-06T22:25:11.600Z,27.5
2018-03-06T22:26:01.398Z,27.5
2018-03-06T22:26:51.147Z,27.5
2018-03-06T22:27:41.474Z,27.5
2018-03-06T22:28:31.525Z,27.4
2018-03-06T22:29:21.585Z,27.4
2018-03-06T22:30:11.672Z,27.4
2018-03-06T22:31:01.676Z,25.8
2018-03-06T22:31:51.751Z,24.8
2018-03-06T22:32:41.517Z,24.3
2018-03-06T22:33:32.104Z,24
2018-03-06T22:34:21.381Z,23.8
2018-03-06T22:35:11.722Z,23.7
2018-03-06T22:36:01.304Z,23.6
2018-03-06T22:36:51.051Z,23.6
2018-03-06T22:37:42.454Z,23.5
2018-03-06T22:38:32.739Z,23.8
2018-03-06T22:39:22.279Z,24.1
2018-03-06T22:40:12.623Z,24.6
2018-03-06T22:41:01.547Z,24.9
2018-03-06T22:41:52.432Z,25.4
2018-03-06T22:42:42.769Z,25.7
2018-03-06T22:43:32.256Z,26
2018-03-06T22:44:22.397Z,26.3
2018-03-06T22:45:12.444Z,26.5
2018-03-06T22:46:02.734Z,26.7
2018-03-06T22:46:52.799Z,26.9
2018-03-06T22:47:43.103Z,27
2018-03-06T22:48:32.415Z,27.1
2018-03-06T22:49:22.975Z,27.3
2018-03-06T22:50:12.989Z,27.3
2018-03-06T22:51:02.803Z,27.4
2018-03-06T22:51:52.614Z,27.4
2018-03-06T22:52:43.186Z,27.5
2018-03-06T22:53:32.676Z,27.5
2018-03-06T22:54:23.078Z,27.5
2018-03-06T22:55:13.393Z,27.5
2018-03-06T22:56:03.429Z,27.5
2018-03-06T22:56:52.630Z,27.5
2018-03-06T22:57:43.824Z,27.4
2018-03-06T22:58:33.545Z,27.4
2018-03-06T22:59:23.386Z,27.4
2018-03-06T23:00:13.736Z,27.4
2018-03-06T23:01:03.482Z,26.9
2018-03-06T23:01:53.822Z,25.2
2018-03-06T23:02:44.244Z,24.4
2018-03-06T23:03:33.937Z,24.1
2018-03-06T23:04:23.959Z,23.8
2018-03-06T23:05:14.078Z,23.6
2018-03-06T23:06:03.563Z,23.6
2018-03-06T23:06:54.153Z,23.4
2018-03-06T23:07:43.945Z,23.4
2018-03-06T23:08:34.270Z,23.4
2018-03-06T23:09:23.805Z,23.9
2018-03-06T23:10:14.702Z,24.3
2018-03-06T23:11:04.437Z,24.7
2018-03-06T23:11:54.523Z,25.1
2018-03-06T23:12:44.557Z,25.4
2018-03-06T23:13:34.747Z,25.8
2018-03-06T23:14:24.303Z,26.1
2018-03-06T23:15:14.997Z,26.3
2018-03-06T23:16:04.797Z,26.6
2018-03-06T23:16:54.296Z,26.8
2018-03-06T23:17:44.609Z,26.9
2018-03-06T23:18:34.978Z,27
2018-03-06T23:19:25.026Z,27.1
2018-03-06T23:20:14.777Z,27.3
2018-03-06T23:21:05.177Z,27.3
2018-03-06T23:21:54.393Z,27.3
2018-03-06T23:22:44.740Z,27.4
2018-03-06T23:23:34.717Z,27.4
2018-03-06T23:24:25.407Z,27.4
2018-03-06T23:25:15.438Z,27.4
2018-03-06T23:26:04.319Z,27.4
2018-03-06T23:26:55.029Z,27.4
2018-03-06T23:27:45.039Z,27.4
2018-03-06T23:28:35.380Z,27.4
2018-03-06T23:29:25.494Z,27.4
2018-03-06T23:30:16.052Z,27.4
2018-03-06T23:31:05.261Z,27.4
2018-03-06T23:31:55.290Z,25.9
2018-03-06T23:32:46.218Z,24.8
2018-03-06T23:33:35.549Z,24.1
2018-03-06T23:34:26.076Z,23.8
2018-03-06T23:35:16.099Z,23.6
2018-03-06T23:36:06.193Z,23.4
2018-03-06T23:36:55.943Z,23.4
2018-03-06T23:37:46.568Z,23.3
2018-03-06T23:38:35.613Z,23.2
2018-03-06T23:39:25.610Z,23.4
2018-03-06T23:40:16.238Z,23.8
2018-03-06T23:41:06.047Z,24.3
2018-03-06T23:41:55.915Z,24.6
2018-03-06T23:42:46.942Z,25
2018-03-06T23:43:36.502Z,25.4
2018-03-06T23:44:26.472Z,25.7
2018-03-06T23:45:16.560Z,26
2018-03-06T23:46:05.513Z,26.3
2018-03-06T23:46:55.870Z,26.4
2018-03-06T23:47:46.692Z,26.6
2018-03-06T23:48:36.759Z,26.8
2018-03-06T23:49:26.992Z,26.9
2018-03-06T23:50:16.894Z,27.1
2018-03-06T23:51:06.207Z,27.2
2018-03-06T23:51:56.707Z,27.3
2018-03-06T23:52:46.517Z,27.3
2018-03-06T23:53:37.456Z,27.4
2018-03-06T23:54:26.488Z,27.4
2018-03-06T23:55:16.158Z,27.4
2018-03-06T23:56:06.225Z,27.4
2018-03-06T23:56:56.877Z,27.4
2018-03-06T23:57:46.669Z,27.4
2018-03-06T23:58:36.463Z,27.4
2018-03-06T23:59:27.272Z,27.4
